Dewees Island, South Carolina
Current Conditions -  °F | °C
As of 6:56 PM on Wednesday 28 Jan 2015 (Local Time) from KCHS Reporting Station
Clear Clear  
Wind Chill: 39°   Ceiling: Unl
Heat Index: 39°   Visibility: 10mi
Dew Point: 24°   Wind: 0mph
Humidity: 55%   Direction: NA
Pressure: 30.31"   Gusts: NA
Location:  32.8046°N, 79.7534°W
Report Text: KCHS 282356Z 00000KT 10SM CLR 04/M04 A3031 RMK AO2 SLP264 T00391044 10094 20039 51021
Loading
Personal Weather Stations






























Interactive Weather Map New forecast layout! Learn more

10-Day Weather Forecast

Advertisements
Track Severe Weather on mobile